sensor_id;sensor_type;location;lat;lon;timestamp;temperature;humidity
5705;DHT22;2877;48.238;11.160;2023-10-08T00:01:17;16.00;91.50
5705;DHT22;2877;48.238;11.160;2023-10-08T00:03:43;16.00;91.40
5705;DHT22;2877;48.238;11.160;2023-10-08T00:06:15;16.00;91.20
5705;DHT22;2877;48.238;11.160;2023-10-08T00:08:40;16.10;91.10
5705;DHT22;2877;48.238;11.160;2023-10-08T00:11:06;16.10;91.10
5705;DHT22;2877;48.238;11.160;2023-10-08T00:13:33;16.10;90.70
5705;DHT22;2877;48.238;11.160;2023-10-08T00:16:13;16.10;90.40
5705;DHT22;2877;48.238;11.160;2023-10-08T00:18:43;16.20;90.40
5705;DHT22;2877;48.238;11.160;2023-10-08T00:21:17;16.30;90.20
5705;DHT22;2877;48.238;11.160;2023-10-08T00:23:45;16.30;90.00
5705;DHT22;2877;48.238;11.160;2023-10-08T00:26:31;16.40;89.00
5705;DHT22;2877;48.238;11.160;2023-10-08T00:28:58;16.50;88.90
5705;DHT22;2877;48.238;11.160;2023-10-08T00:31:25;16.50;88.20
5705;DHT22;2877;48.238;11.160;2023-10-08T00:33:57;16.50;87.80
5705;DHT22;2877;48.238;11.160;2023-10-08T00:36:23;16.50;87.30
5705;DHT22;2877;48.238;11.160;2023-10-08T00:38:50;16.50;86.10
5705;DHT22;2877;48.238;11.160;2023-10-08T00:41:26;16.60;85.50
5705;DHT22;2877;48.238;11.160;2023-10-08T00:43:56;16.70;84.80
5705;DHT22;2877;48.238;11.160;2023-10-08T00:46:24;16.70;84.70
5705;DHT22;2877;48.238;11.160;2023-10-08T00:48:59;16.80;85.30
5705;DHT22;2877;48.238;11.160;2023-10-08T00:51:43;16.80;84.50
5705;DHT22;2877;48.238;11.160;2023-10-08T00:54:10;16.90;84.60
5705;DHT22;2877;48.238;11.160;2023-10-08T00:56:46;16.90;83.90
5705;DHT22;2877;48.238;11.160;2023-10-08T00:59:18;16.90;84.00
5705;DHT22;2877;48.238;11.160;2023-10-08T01:01:47;16.90;83.50
5705;DHT22;2877;48.238;11.160;2023-10-08T01:04:31;16.90;83.50
5705;DHT22;2877;48.238;11.160;2023-10-08T01:07:01;16.90;83.70
5705;DHT22;2877;48.238;11.160;2023-10-08T01:09:35;16.90;84.20
5705;DHT22;2877;48.238;11.160;2023-10-08T01:12:15;16.80;85.10
5705;DHT22;2877;48.238;11.160;2023-10-08T01:15:02;16.80;83.80
5705;DHT22;2877;48.238;11.160;2023-10-08T01:17:41;16.70;83.40
5705;DHT22;2877;48.238;11.160;2023-10-08T01:20:17;16.80;83.30
5705;DHT22;2877;48.238;11.160;2023-10-08T01:23:08;16.80;82.80
5705;DHT22;2877;48.238;11.160;2023-10-08T01:25:39;16.80;82.30
5705;DHT22;2877;48.238;11.160;2023-10-08T01:28:06;16.80;82.60
5705;DHT22;2877;48.238;11.160;2023-10-08T01:30:56;16.80;82.50
5705;DHT22;2877;48.238;11.160;2023-10-08T01:33:28;16.80;82.90
5705;DHT22;2877;48.238;11.160;2023-10-08T01:35:54;16.70;83.10
5705;DHT22;2877;48.238;11.160;2023-10-08T01:38:20;16.70;83.00
5705;DHT22;2877;48.238;11.160;2023-10-08T01:40:49;16.70;82.70
5705;DHT22;2877;48.238;11.160;2023-10-08T01:43:19;16.70;82.40
5705;DHT22;2877;48.238;11.160;2023-10-08T01:45:45;16.80;82.90
5705;DHT22;2877;48.238;11.160;2023-10-08T01:48:15;16.70;82.50
5705;DHT22;2877;48.238;11.160;2023-10-08T01:50:46;16.80;82.90
5705;DHT22;2877;48.238;11.160;2023-10-08T01:53:13;16.80;82.50
5705;DHT22;2877;48.238;11.160;2023-10-08T01:55:40;16.70;81.90
5705;DHT22;2877;48.238;11.160;2023-10-08T01:58:17;16.80;82.00
5705;DHT22;2877;48.238;11.160;2023-10-08T02:00:47;16.80;82.90
5705;DHT22;2877;48.238;11.160;2023-10-08T02:03:13;16.70;81.70
5705;DHT22;2877;48.238;11.160;2023-10-08T02:05:44;16.80;81.90
5705;DHT22;2877;48.238;11.160;2023-10-08T02:08:11;16.80;80.80
5705;DHT22;2877;48.238;11.160;2023-10-08T02:10:42;16.80;81.00
5705;DHT22;2877;48.238;11.160;2023-10-08T02:13:09;16.80;81.70
5705;DHT22;2877;48.238;11.160;2023-10-08T02:15:42;16.80;80.70
5705;DHT22;2877;48.238;11.160;2023-10-08T02:18:08;16.80;80.70
5705;DHT22;2877;48.238;11.160;2023-10-08T02:20:34;16.80;80.60
5705;DHT22;2877;48.238;11.160;2023-10-08T02:22:59;16.80;80.00
5705;DHT22;2877;48.238;11.160;2023-10-08T02:25:25;16.80;79.60
5705;DHT22;2877;48.238;11.160;2023-10-08T02:27:51;16.80;80.00
5705;DHT22;2877;48.238;11.160;2023-10-08T02:30:17;16.80;80.20
5705;DHT22;2877;48.238;11.160;2023-10-08T02:32:43;16.80;79.40
5705;DHT22;2877;48.238;11.160;2023-10-08T02:35:12;16.80;79.60
5705;DHT22;2877;48.238;11.160;2023-10-08T02:37:39;16.80;79.20
5705;DHT22;2877;48.238;11.160;2023-10-08T02:40:09;16.80;78.90
5705;DHT22;2877;48.238;11.160;2023-10-08T02:43:01;16.80;79.40
5705;DHT22;2877;48.238;11.160;2023-10-08T02:45:29;16.80;78.30
5705;DHT22;2877;48.238;11.160;2023-10-08T02:47:55;16.80;79.20
5705;DHT22;2877;48.238;11.160;2023-10-08T02:50:21;16.80;78.10
5705;DHT22;2877;48.238;11.160;2023-10-08T02:52:48;16.80;77.80
5705;DHT22;2877;48.238;11.160;2023-10-08T02:55:16;16.80;78.00
5705;DHT22;2877;48.238;11.160;2023-10-08T02:58:02;16.80;78.80
5705;DHT22;2877;48.238;11.160;2023-10-08T03:00:29;16.70;77.60
5705;DHT22;2877;48.238;11.160;2023-10-08T03:03:00;16.70;77.70
5705;DHT22;2877;48.238;11.160;2023-10-08T03:05:27;16.70;77.50
5705;DHT22;2877;48.238;11.160;2023-10-08T03:08:04;16.70;78.80
5705;DHT22;2877;48.238;11.160;2023-10-08T03:10:39;16.70;78.20
5705;DHT22;2877;48.238;11.160;2023-10-08T03:13:07;16.70;77.60
5705;DHT22;2877;48.238;11.160;2023-10-08T03:15:35;16.70;77.60
5705;DHT22;2877;48.238;11.160;2023-10-08T03:18:13;16.70;77.50
5705;DHT22;2877;48.238;11.160;2023-10-08T03:20:41;16.70;77.00
5705;DHT22;2877;48.238;11.160;2023-10-08T03:23:15;16.60;76.60
5705;DHT22;2877;48.238;11.160;2023-10-08T03:26:00;16.80;76.50
5705;DHT22;2877;48.238;11.160;2023-10-08T03:28:30;16.80;76.20
5705;DHT22;2877;48.238;11.160;2023-10-08T03:31:00;16.70;76.50
5705;DHT22;2877;48.238;11.160;2023-10-08T03:33:38;16.70;76.40
5705;DHT22;2877;48.238;11.160;2023-10-08T03:36:04;16.70;75.80
5705;DHT22;2877;48.238;11.160;2023-10-08T03:38:35;16.70;76.60
5705;DHT22;2877;48.238;11.160;2023-10-08T03:41:22;16.70;75.80
5705;DHT22;2877;48.238;11.160;2023-10-08T03:43:52;16.70;75.30
5705;DHT22;2877;48.238;11.160;2023-10-08T03:46:21;16.70;75.80
5705;DHT22;2877;48.238;11.160;2023-10-08T03:48:49;16.70;75.90
5705;DHT22;2877;48.238;11.160;2023-10-08T03:51:20;16.70;75.40
5705;DHT22;2877;48.238;11.160;2023-10-08T03:53:47;16.70;75.70
5705;DHT22;2877;48.238;11.160;2023-10-08T03:56:32;16.70;75.50
5705;DHT22;2877;48.238;11.160;2023-10-08T03:59:02;16.60;75.90
5705;DHT22;2877;48.238;11.160;2023-10-08T04:01:38;16.70;76.30
5705;DHT22;2877;48.238;11.160;2023-10-08T04:04:06;16.60;75.90
5705;DHT22;2877;48.238;11.160;2023-10-08T04:06:37;16.60;76.00
5705;DHT22;2877;48.238;11.160;2023-10-08T04:09:04;16.60;75.10
5705;DHT22;2877;48.238;11.160;2023-10-08T04:11:41;16.60;76.30
5705;DHT22;2877;48.238;11.160;2023-10-08T04:14:20;16.60;76.00
5705;DHT22;2877;48.238;11.160;2023-10-08T04:16:46;16.60;75.70
5705;DHT22;2877;48.238;11.160;2023-10-08T04:19:17;16.60;75.60
5705;DHT22;2877;48.238;11.160;2023-10-08T04:21:44;16.60;75.40
5705;DHT22;2877;48.238;11.160;2023-10-08T04:24:10;16.60;76.40
5705;DHT22;2877;48.238;11.160;2023-10-08T04:26:36;16.60;75.50
5705;DHT22;2877;48.238;11.160;2023-10-08T04:29:05;16.60;76.00
5705;DHT22;2877;48.238;11.160;2023-10-08T04:31:35;16.60;75.60
5705;DHT22;2877;48.238;11.160;2023-10-08T04:34:07;16.50;75.30
5705;DHT22;2877;48.238;11.160;2023-10-08T04:36:44;16.60;75.60
5705;DHT22;2877;48.238;11.160;2023-10-08T04:39:19;16.60;76.00
5705;DHT22;2877;48.238;11.160;2023-10-08T04:41:48;16.50;75.70
5705;DHT22;2877;48.238;11.160;2023-10-08T04:44:19;16.50;77.20
5705;DHT22;2877;48.238;11.160;2023-10-08T04:46:47;16.50;75.70
5705;DHT22;2877;48.238;11.160;2023-10-08T04:49:17;16.50;76.60
5705;DHT22;2877;48.238;11.160;2023-10-08T04:51:55;16.40;76.50
5705;DHT22;2877;48.238;11.160;2023-10-08T04:54:27;16.40;76.30
5705;DHT22;2877;48.238;11.160;2023-10-08T04:56:59;16.40;76.90
5705;DHT22;2877;48.238;11.160;2023-10-08T04:59:29;16.30;77.20
5705;DHT22;2877;48.238;11.160;2023-10-08T05:02:03;16.20;77.50
5705;DHT22;2877;48.238;11.160;2023-10-08T05:04:42;16.20;78.10
5705;DHT22;2877;48.238;11.160;2023-10-08T05:07:23;16.20;78.10
5705;DHT22;2877;48.238;11.160;2023-10-08T05:10:07;16.10;78.90
5705;DHT22;2877;48.238;11.160;2023-10-08T05:12:33;16.10;78.90
5705;DHT22;2877;48.238;11.160;2023-10-08T05:15:16;16.00;79.10
5705;DHT22;2877;48.238;11.160;2023-10-08T05:17:43;16.00;79.20
5705;DHT22;2877;48.238;11.160;2023-10-08T05:20:15;15.90;80.40
5705;DHT22;2877;48.238;11.160;2023-10-08T05:22:59;15.90;79.80
5705;DHT22;2877;48.238;11.160;2023-10-08T05:25:46;15.90;80.20
5705;DHT22;2877;48.238;11.160;2023-10-08T05:28:31;15.90;79.60
5705;DHT22;2877;48.238;11.160;2023-10-08T05:31:07;15.90;79.70
5705;DHT22;2877;48.238;11.160;2023-10-08T05:33:39;15.90;79.70
5705;DHT22;2877;48.238;11.160;2023-10-08T05:36:23;15.90;80.00
5705;DHT22;2877;48.238;11.160;2023-10-08T05:39:21;16.00;79.40
5705;DHT22;2877;48.238;11.160;2023-10-08T05:41:49;16.10;79.10
5705;DHT22;2877;48.238;11.160;2023-10-08T05:44:30;16.10;79.60
5705;DHT22;2877;48.238;11.160;2023-10-08T05:47:06;16.10;79.70
5705;DHT22;2877;48.238;11.160;2023-10-08T05:49:38;16.10;79.60
5705;DHT22;2877;48.238;11.160;2023-10-08T05:52:04;16.10;79.50
5705;DHT22;2877;48.238;11.160;2023-10-08T05:54:30;16.10;79.80
5705;DHT22;2877;48.238;11.160;2023-10-08T05:56:58;16.20;80.20
5705;DHT22;2877;48.238;11.160;2023-10-08T05:59:50;16.20;80.00
5705;DHT22;2877;48.238;11.160;2023-10-08T06:02:41;16.30;80.00
5705;DHT22;2877;48.238;11.160;2023-10-08T06:05:11;16.30;79.80
5705;DHT22;2877;48.238;11.160;2023-10-08T06:07:41;16.30;80.00
5705;DHT22;2877;48.238;11.160;2023-10-08T06:10:16;16.30;80.00
5705;DHT22;2877;48.238;11.160;2023-10-08T06:13:11;16.30;80.30
5705;DHT22;2877;48.238;11.160;2023-10-08T06:15:56;16.30;80.60
5705;DHT22;2877;48.238;11.160;2023-10-08T06:18:27;16.30;81.20
5705;DHT22;2877;48.238;11.160;2023-10-08T06:20:53;16.20;81.50
5705;DHT22;2877;48.238;11.160;2023-10-08T06:23:20;16.30;81.90
5705;DHT22;2877;48.238;11.160;2023-10-08T06:25:49;16.30;82.50
5705;DHT22;2877;48.238;11.160;2023-10-08T06:28:25;16.40;82.30
5705;DHT22;2877;48.238;11.160;2023-10-08T06:30:52;16.40;82.10
5705;DHT22;2877;48.238;11.160;2023-10-08T06:33:20;16.50;81.60
5705;DHT22;2877;48.238;11.160;2023-10-08T06:35:46;16.60;81.90
5705;DHT22;2877;48.238;11.160;2023-10-08T06:38:28;16.60;82.90
5705;DHT22;2877;48.238;11.160;2023-10-08T06:40:59;16.70;83.90
5705;DHT22;2877;48.238;11.160;2023-10-08T06:43:26;16.70;83.90
5705;DHT22;2877;48.238;11.160;2023-10-08T06:45:52;16.60;83.90
5705;DHT22;2877;48.238;11.160;2023-10-08T06:48:20;16.60;83.90
5705;DHT22;2877;48.238;11.160;2023-10-08T06:50:49;16.60;83.70
5705;DHT22;2877;48.238;11.160;2023-10-08T06:53:16;16.70;83.40
5705;DHT22;2877;48.238;11.160;2023-10-08T06:55:44;16.80;84.20
5705;DHT22;2877;48.238;11.160;2023-10-08T06:58:10;16.80;83.60
5705;DHT22;2877;48.238;11.160;2023-10-08T07:00:37;17.00;83.80
5705;DHT22;2877;48.238;11.160;2023-10-08T07:03:13;17.10;83.90
5705;DHT22;2877;48.238;11.160;2023-10-08T07:05:45;17.30;84.90
5705;DHT22;2877;48.238;11.160;2023-10-08T07:08:21;17.50;84.10
5705;DHT22;2877;48.238;11.160;2023-10-08T07:10:51;17.60;84.00
5705;DHT22;2877;48.238;11.160;2023-10-08T07:13:21;17.60;83.70
5705;DHT22;2877;48.238;11.160;2023-10-08T07:15:53;17.60;84.00
5705;DHT22;2877;48.238;11.160;2023-10-08T07:18:19;17.60;83.90
5705;DHT22;2877;48.238;11.160;2023-10-08T07:20:51;17.70;84.10
5705;DHT22;2877;48.238;11.160;2023-10-08T07:23:20;17.70;83.60
5705;DHT22;2877;48.238;11.160;2023-10-08T07:25:57;17.80;84.40
5705;DHT22;2877;48.238;11.160;2023-10-08T07:28:31;17.80;84.50
5705;DHT22;2877;48.238;11.160;2023-10-08T07:30:59;17.80;84.20
5705;DHT22;2877;48.238;11.160;2023-10-08T07:33:24;17.90;83.80
5705;DHT22;2877;48.238;11.160;2023-10-08T07:35:51;18.00;83.30
5705;DHT22;2877;48.238;11.160;2023-10-08T07:38:18;18.20;84.40
5705;DHT22;2877;48.238;11.160;2023-10-08T07:40:44;18.30;84.20
5705;DHT22;2877;48.238;11.160;2023-10-08T07:43:10;18.20;84.10
5705;DHT22;2877;48.238;11.160;2023-10-08T07:45:36;18.20;84.80
5705;DHT22;2877;48.238;11.160;2023-10-08T07:48:02;18.20;84.10
5705;DHT22;2877;48.238;11.160;2023-10-08T07:50:35;18.20;83.90
5705;DHT22;2877;48.238;11.160;2023-10-08T07:53:03;18.20;83.20
5705;DHT22;2877;48.238;11.160;2023-10-08T07:55:29;18.20;83.80
5705;DHT22;2877;48.238;11.160;2023-10-08T07:57:58;18.20;81.90
5705;DHT22;2877;48.238;11.160;2023-10-08T08:00:24;18.20;82.40
5705;DHT22;2877;48.238;11.160;2023-10-08T08:02:56;18.10;82.40
5705;DHT22;2877;48.238;11.160;2023-10-08T08:05:23;18.20;84.00
5705;DHT22;2877;48.238;11.160;2023-10-08T08:07:50;18.20;82.90
5705;DHT22;2877;48.238;11.160;2023-10-08T08:10:17;18.20;84.40
5705;DHT22;2877;48.238;11.160;2023-10-08T08:12:44;18.20;84.60
5705;DHT22;2877;48.238;11.160;2023-10-08T08:15:11;18.20;84.30
5705;DHT22;2877;48.238;11.160;2023-10-08T08:17:44;18.20;84.70
5705;DHT22;2877;48.238;11.160;2023-10-08T08:20:10;18.20;85.90
5705;DHT22;2877;48.238;11.160;2023-10-08T08:22:45;18.20;86.60
5705;DHT22;2877;48.238;11.160;2023-10-08T08:25:19;18.10;86.80
5705;DHT22;2877;48.238;11.160;2023-10-08T08:28:08;18.10;86.20
5705;DHT22;2877;48.238;11.160;2023-10-08T08:30:45;18.20;86.40
5705;DHT22;2877;48.238;11.160;2023-10-08T08:33:13;18.20;85.20
5705;DHT22;2877;48.238;11.160;2023-10-08T08:35:39;18.20;86.80
5705;DHT22;2877;48.238;11.160;2023-10-08T08:38:04;18.20;84.90
5705;DHT22;2877;48.238;11.160;2023-10-08T08:40:31;18.20;87.80
5705;DHT22;2877;48.238;11.160;2023-10-08T08:42:59;18.20;86.70
5705;DHT22;2877;48.238;11.160;2023-10-08T08:45:27;18.20;88.80
5705;DHT22;2877;48.238;11.160;2023-10-08T08:47:57;18.10;87.70
5705;DHT22;2877;48.238;11.160;2023-10-08T08:50:22;18.10;88.60
5705;DHT22;2877;48.238;11.160;2023-10-08T08:52:48;18.20;88.90
5705;DHT22;2877;48.238;11.160;2023-10-08T08:55:14;18.30;88.90
5705;DHT22;2877;48.238;11.160;2023-10-08T08:57:42;18.20;89.30
5705;DHT22;2877;48.238;11.160;2023-10-08T09:00:11;18.30;88.30
5705;DHT22;2877;48.238;11.160;2023-10-08T09:02:44;18.30;88.80
5705;DHT22;2877;48.238;11.160;2023-10-08T09:05:10;18.30;88.30
5705;DHT22;2877;48.238;11.160;2023-10-08T09:08:03;18.30;87.90
5705;DHT22;2877;48.238;11.160;2023-10-08T09:10:31;18.40;88.30
5705;DHT22;2877;48.238;11.160;2023-10-08T09:13:04;18.50;87.30
5705;DHT22;2877;48.238;11.160;2023-10-08T09:15:30;18.50;87.60
5705;DHT22;2877;48.238;11.160;2023-10-08T09:17:57;18.60;88.90
5705;DHT22;2877;48.238;11.160;2023-10-08T09:20:27;18.60;88.10
5705;DHT22;2877;48.238;11.160;2023-10-08T09:23:11;18.60;88.30
5705;DHT22;2877;48.238;11.160;2023-10-08T09:25:37;18.70;87.00
5705;DHT22;2877;48.238;11.160;2023-10-08T09:28:04;18.80;87.90
5705;DHT22;2877;48.238;11.160;2023-10-08T09:30:36;18.80;87.60
5705;DHT22;2877;48.238;11.160;2023-10-08T09:33:09;18.80;87.60
5705;DHT22;2877;48.238;11.160;2023-10-08T09:35:35;18.90;87.30
5705;DHT22;2877;48.238;11.160;2023-10-08T09:38:03;18.90;87.50
5705;DHT22;2877;48.238;11.160;2023-10-08T09:40:29;19.00;87.50
5705;DHT22;2877;48.238;11.160;2023-10-08T09:42:55;19.10;87.20
5705;DHT22;2877;48.238;11.160;2023-10-08T09:45:21;19.10;87.40
5705;DHT22;2877;48.238;11.160;2023-10-08T09:47:53;19.10;86.90
5705;DHT22;2877;48.238;11.160;2023-10-08T09:50:36;19.20;87.10
5705;DHT22;2877;48.238;11.160;2023-10-08T09:53:11;19.30;87.90
5705;DHT22;2877;48.238;11.160;2023-10-08T09:56:02;19.50;88.10
5705;DHT22;2877;48.238;11.160;2023-10-08T09:58:29;19.70;88.20
5705;DHT22;2877;48.238;11.160;2023-10-08T10:00:56;19.70;88.80
5705;DHT22;2877;48.238;11.160;2023-10-08T10:03:24;19.70;88.90
5705;DHT22;2877;48.238;11.160;2023-10-08T10:05:51;19.70;88.20
5705;DHT22;2877;48.238;11.160;2023-10-08T10:08:17;19.90;87.30
5705;DHT22;2877;48.238;11.160;2023-10-08T10:10:43;19.90;87.90
5705;DHT22;2877;48.238;11.160;2023-10-08T10:13:15;20.00;88.20
5705;DHT22;2877;48.238;11.160;2023-10-08T10:15:42;19.90;87.00
5705;DHT22;2877;48.238;11.160;2023-10-08T10:18:15;19.80;87.10
5705;DHT22;2877;48.238;11.160;2023-10-08T10:20:45;19.80;87.30
5705;DHT22;2877;48.238;11.160;2023-10-08T10:23:36;19.80;87.50
5705;DHT22;2877;48.238;11.160;2023-10-08T10:26:03;19.80;88.40
5705;DHT22;2877;48.238;11.160;2023-10-08T10:28:29;19.70;86.60
5705;DHT22;2877;48.238;11.160;2023-10-08T10:30:55;19.60;86.50
5705;DHT22;2877;48.238;11.160;2023-10-08T10:33:29;19.60;86.50
5705;DHT22;2877;48.238;11.160;2023-10-08T10:35:54;19.50;88.40
5705;DHT22;2877;48.238;11.160;2023-10-08T10:38:20;19.50;88.90
5705;DHT22;2877;48.238;11.160;2023-10-08T10:40:51;19.50;87.60
5705;DHT22;2877;48.238;11.160;2023-10-08T10:43:26;19.50;89.70
5705;DHT22;2877;48.238;11.160;2023-10-08T10:46:05;19.40;90.70
5705;DHT22;2877;48.238;11.160;2023-10-08T10:49:05;19.40;91.30
5705;DHT22;2877;48.238;11.160;2023-10-08T10:51:46;19.30;90.80
5705;DHT22;2877;48.238;11.160;2023-10-08T10:54:12;19.30;91.10
5705;DHT22;2877;48.238;11.160;2023-10-08T10:56:46;19.30;91.30
5705;DHT22;2877;48.238;11.160;2023-10-08T10:59:13;19.30;92.30
5705;DHT22;2877;48.238;11.160;2023-10-08T11:01:49;19.30;91.90
5705;DHT22;2877;48.238;11.160;2023-10-08T11:04:21;19.30;92.10
5705;DHT22;2877;48.238;11.160;2023-10-08T11:06:55;19.30;92.30
5705;DHT22;2877;48.238;11.160;2023-10-08T11:09:26;19.30;92.50
5705;DHT22;2877;48.238;11.160;2023-10-08T11:12:06;19.30;92.50
5705;DHT22;2877;48.238;11.160;2023-10-08T11:14:41;19.20;92.10
5705;DHT22;2877;48.238;11.160;2023-10-08T11:17:11;19.10;92.30
5705;DHT22;2877;48.238;11.160;2023-10-08T11:19:37;19.10;92.30
5705;DHT22;2877;48.238;11.160;2023-10-08T11:22:02;19.10;92.30
5705;DHT22;2877;48.238;11.160;2023-10-08T11:24:29;19.10;92.80
5705;DHT22;2877;48.238;11.160;2023-10-08T11:26:59;19.10;92.40
5705;DHT22;2877;48.238;11.160;2023-10-08T11:29:54;19.10;92.80
5705;DHT22;2877;48.238;11.160;2023-10-08T11:32:24;19.20;93.30
5705;DHT22;2877;48.238;11.160;2023-10-08T11:35:00;19.20;93.60
5705;DHT22;2877;48.238;11.160;2023-10-08T11:37:32;19.20;93.10
5705;DHT22;2877;48.238;11.160;2023-10-08T11:40:02;19.20;93.90
5705;DHT22;2877;48.238;11.160;2023-10-08T11:42:43;19.10;94.40
5705;DHT22;2877;48.238;11.160;2023-10-08T11:45:16;19.10;94.30
5705;DHT22;2877;48.238;11.160;2023-10-08T11:48:04;19.10;94.10
5705;DHT22;2877;48.238;11.160;2023-10-08T11:50:37;19.00;94.50
5705;DHT22;2877;48.238;11.160;2023-10-08T11:53:04;19.00;94.60
5705;DHT22;2877;48.238;11.160;2023-10-08T11:55:35;19.10;94.80
5705;DHT22;2877;48.238;11.160;2023-10-08T11:58:03;19.20;94.40
5705;DHT22;2877;48.238;11.160;2023-10-08T12:00:39;19.20;94.30
5705;DHT22;2877;48.238;11.160;2023-10-08T12:03:10;19.20;94.00
5705;DHT22;2877;48.238;11.160;2023-10-08T12:05:37;19.30;93.90
5705;DHT22;2877;48.238;11.160;2023-10-08T12:08:05;19.40;93.70
5705;DHT22;2877;48.238;11.160;2023-10-08T12:10:33;19.50;94.00
5705;DHT22;2877;48.238;11.160;2023-10-08T12:13:00;19.50;93.90
5705;DHT22;2877;48.238;11.160;2023-10-08T12:15:26;19.50;93.40
5705;DHT22;2877;48.238;11.160;2023-10-08T12:18:04;19.50;93.80
5705;DHT22;2877;48.238;11.160;2023-10-08T12:20:48;19.50;93.00
5705;DHT22;2877;48.238;11.160;2023-10-08T12:23:14;19.50;93.40
5705;DHT22;2877;48.238;11.160;2023-10-08T12:25:55;19.50;93.10
5705;DHT22;2877;48.238;11.160;2023-10-08T12:28:22;19.50;93.30
5705;DHT22;2877;48.238;11.160;2023-10-08T12:30:49;19.40;93.30
5705;DHT22;2877;48.238;11.160;2023-10-08T12:33:18;19.40;93.20
5705;DHT22;2877;48.238;11.160;2023-10-08T12:35:46;19.40;93.70
5705;DHT22;2877;48.238;11.160;2023-10-08T12:38:13;19.40;93.60
5705;DHT22;2877;48.238;11.160;2023-10-08T12:40:40;19.40;94.10
5705;DHT22;2877;48.238;11.160;2023-10-08T12:43:21;19.50;94.00
5705;DHT22;2877;48.238;11.160;2023-10-08T12:45:51;19.70;93.60
5705;DHT22;2877;48.238;11.160;2023-10-08T12:48:26;19.80;93.50
5705;DHT22;2877;48.238;11.160;2023-10-08T12:50:53;19.90;92.90
5705;DHT22;2877;48.238;11.160;2023-10-08T12:53:26;20.00;93.40
5705;DHT22;2877;48.238;11.160;2023-10-08T12:56:03;20.10;93.60
5705;DHT22;2877;48.238;11.160;2023-10-08T12:58:34;20.20;93.10
5705;DHT22;2877;48.238;11.160;2023-10-08T13:01:15;20.30;93.10
5705;DHT22;2877;48.238;11.160;2023-10-08T13:03:43;20.30;92.90
5705;DHT22;2877;48.238;11.160;2023-10-08T13:06:14;20.30;92.40
5705;DHT22;2877;48.238;11.160;2023-10-08T13:08:54;20.40;92.40
5705;DHT22;2877;48.238;11.160;2023-10-08T13:11:24;20.40;92.60
5705;DHT22;2877;48.238;11.160;2023-10-08T13:13:55;20.40;92.40
5705;DHT22;2877;48.238;11.160;2023-10-08T13:16:25;20.30;92.60
5705;DHT22;2877;48.238;11.160;2023-10-08T13:18:51;20.30;91.90
5705;DHT22;2877;48.238;11.160;2023-10-08T13:21:18;20.20;92.30
5705;DHT22;2877;48.238;11.160;2023-10-08T13:23:53;20.20;92.70
5705;DHT22;2877;48.238;11.160;2023-10-08T13:26:19;20.20;92.70
5705;DHT22;2877;48.238;11.160;2023-10-08T13:28:48;20.30;92.30
5705;DHT22;2877;48.238;11.160;2023-10-08T13:31:13;20.30;92.60
5705;DHT22;2877;48.238;11.160;2023-10-08T13:33:42;20.40;92.00
5705;DHT22;2877;48.238;11.160;2023-10-08T13:36:09;20.40;92.00
5705;DHT22;2877;48.238;11.160;2023-10-08T13:38:35;20.50;91.90
5705;DHT22;2877;48.238;11.160;2023-10-08T13:41:04;20.50;91.50
5705;DHT22;2877;48.238;11.160;2023-10-08T13:43:48;20.50;91.60
5705;DHT22;2877;48.238;11.160;2023-10-08T13:46:15;20.50;91.10
5705;DHT22;2877;48.238;11.160;2023-10-08T13:48:43;20.50;91.30
5705;DHT22;2877;48.238;11.160;2023-10-08T13:51:14;20.50;91.00
5705;DHT22;2877;48.238;11.160;2023-10-08T13:53:40;20.50;91.20
5705;DHT22;2877;48.238;11.160;2023-10-08T13:56:10;20.60;90.90
5705;DHT22;2877;48.238;11.160;2023-10-08T13:58:37;20.70;90.80
5705;DHT22;2877;48.238;11.160;2023-10-08T14:01:06;20.70;90.80
5705;DHT22;2877;48.238;11.160;2023-10-08T14:03:53;20.60;90.50
5705;DHT22;2877;48.238;11.160;2023-10-08T14:06:21;20.60;90.90
5705;DHT22;2877;48.238;11.160;2023-10-08T14:08:47;20.70;91.10
5705;DHT22;2877;48.238;11.160;2023-10-08T14:11:21;20.60;91.20
5705;DHT22;2877;48.238;11.160;2023-10-08T14:13:50;20.60;91.60
5705;DHT22;2877;48.238;11.160;2023-10-08T14:16:18;20.60;91.90
5705;DHT22;2877;48.238;11.160;2023-10-08T14:18:44;20.50;92.00
5705;DHT22;2877;48.238;11.160;2023-10-08T14:21:16;20.50;92.00
5705;DHT22;2877;48.238;11.160;2023-10-08T14:23:43;20.50;92.00
5705;DHT22;2877;48.238;11.160;2023-10-08T14:26:09;20.40;92.60
5705;DHT22;2877;48.238;11.160;2023-10-08T14:28:36;20.40;93.10
5705;DHT22;2877;48.238;11.160;2023-10-08T14:31:24;20.30;92.60
5705;DHT22;2877;48.238;11.160;2023-10-08T14:33:52;20.30;93.20
5705;DHT22;2877;48.238;11.160;2023-10-08T14:36:48;20.20;92.90
5705;DHT22;2877;48.238;11.160;2023-10-08T14:39:35;20.20;92.60
5705;DHT22;2877;48.238;11.160;2023-10-08T14:42:20;20.20;92.90
5705;DHT22;2877;48.238;11.160;2023-10-08T14:45:31;20.20;93.20
5705;DHT22;2877;48.238;11.160;2023-10-08T14:47:57;20.10;93.10
5705;DHT22;2877;48.238;11.160;2023-10-08T14:50:24;20.10;93.30
5705;DHT22;2877;48.238;11.160;2023-10-08T14:52:53;20.00;93.20
5705;DHT22;2877;48.238;11.160;2023-10-08T14:55:20;19.90;93.40
5705;DHT22;2877;48.238;11.160;2023-10-08T14:57:48;19.90;93.50
5705;DHT22;2877;48.238;11.160;2023-10-08T15:00:18;19.90;93.70
5705;DHT22;2877;48.238;11.160;2023-10-08T15:02:53;19.90;93.90
5705;DHT22;2877;48.238;11.160;2023-10-08T15:05:20;19.80;94.30
5705;DHT22;2877;48.238;11.160;2023-10-08T15:07:47;19.80;94.80
5705;DHT22;2877;48.238;11.160;2023-10-08T15:10:14;19.80;95.20
5705;DHT22;2877;48.238;11.160;2023-10-08T15:12:40;19.80;95.00
5705;DHT22;2877;48.238;11.160;2023-10-08T15:15:06;19.80;95.40
5705;DHT22;2877;48.238;11.160;2023-10-08T15:17:42;19.70;95.80
5705;DHT22;2877;48.238;11.160;2023-10-08T15:20:09;19.70;96.30
5705;DHT22;2877;48.238;11.160;2023-10-08T15:22:40;19.60;95.90
5705;DHT22;2877;48.238;11.160;2023-10-08T15:25:08;19.60;96.00
5705;DHT22;2877;48.238;11.160;2023-10-08T15:27:36;19.50;96.10
5705;DHT22;2877;48.238;11.160;2023-10-08T15:30:06;19.40;96.60
5705;DHT22;2877;48.238;11.160;2023-10-08T15:32:32;19.30;97.00
5705;DHT22;2877;48.238;11.160;2023-10-08T15:34:58;19.30;97.70
5705;DHT22;2877;48.238;11.160;2023-10-08T15:37:23;19.20;98.10
5705;DHT22;2877;48.238;11.160;2023-10-08T15:39:49;19.10;98.60
5705;DHT22;2877;48.238;11.160;2023-10-08T15:42:15;19.00;98.80
5705;DHT22;2877;48.238;11.160;2023-10-08T15:44:42;19.00;99.60
5705;DHT22;2877;48.238;11.160;2023-10-08T15:47:08;18.90;99.90
5705;DHT22;2877;48.238;11.160;2023-10-08T15:49:33;18.90;99.90
5705;DHT22;2877;48.238;11.160;2023-10-08T15:51:59;18.80;99.90
5705;DHT22;2877;48.238;11.160;2023-10-08T15:54:24;18.80;99.90
5705;DHT22;2877;48.238;11.160;2023-10-08T15:56:50;18.70;99.90
5705;DHT22;2877;48.238;11.160;2023-10-08T15:59:15;18.70;99.90
5705;DHT22;2877;48.238;11.160;2023-10-08T16:01:41;18.60;99.90
5705;DHT22;2877;48.238;11.160;2023-10-08T16:04:11;18.60;99.90
5705;DHT22;2877;48.238;11.160;2023-10-08T16:06:37;18.50;99.90
5705;DHT22;2877;48.238;11.160;2023-10-08T16:09:02;18.50;99.90
5705;DHT22;2877;48.238;11.160;2023-10-08T16:11:29;18.40;99.90